Time;durP1;ratioP1;P1;durP2;ratioP2;P2;SDS_P1;SDS_P2;PMS_P1;PMS_P2;Temp;Humidity;BMP_temperature;BMP_pressure;BME280_temperature;BME280_humidity;BME280_pressure;Samples;Min_cycle;Max_cycle;Signal;HPM_P1;HPM_P2
2023/03/11 00:01:25;;;;;;;12.60;3.47;;;;;;;;;;5029075;28;20037;-24
2023/03/11 00:03:52;;;;;;;15.18;3.40;;;;;;;;;;5024947;28;20026;-24
2023/03/11 00:06:19;;;;;;;13.52;3.15;;;;;;;;;;5011344;28;20045;-24
2023/03/11 00:08:46;;;;;;;13.63;3.22;;;;;;;;;;5012939;28;20084;-22
2023/03/11 00:11:13;;;;;;;13.80;3.17;;;;;;;;;;5026653;28;20032;-22
2023/03/11 00:13:40;;;;;;;17.40;3.63;;;;;;;;;;5030228;28;20380;-24
2023/03/11 00:16:07;;;;;;;17.52;4.38;;;;;;;;;;5028254;28;20100;-24
2023/03/11 00:18:38;;;;;;;19.83;4.32;;;;;;;;;;5028153;28;20087;-25
2023/03/11 00:21:05;;;;;;;20.48;5.63;;;;;;;;;;5030613;28;20105;-30
2023/03/11 00:23:34;;;;;;;28.90;6.55;;;;;;;;;;5027720;28;20030;-24
2023/03/11 00:26:02;;;;;;;27.73;7.20;;;;;;;;;;5027935;28;20040;-24
2023/03/11 00:28:32;;;;;;;36.38;9.73;;;;;;;;;;5026687;28;20073;-26
2023/03/11 00:30:59;;;;;;;50.47;12.10;;;;;;;;;;5026468;28;20048;-25
2023/03/11 00:33:26;;;;;;;58.60;14.10;;;;;;;;;;5024675;28;20104;-25
2023/03/11 00:35:53;;;;;;;75.13;20.67;;;;;;;;;;5029549;28;20029;-27
2023/03/11 00:38:20;;;;;;;76.68;20.25;;;;;;;;;;5021980;28;20080;-25
2023/03/11 00:40:48;;;;;;;64.93;19.70;;;;;;;;;;5030101;28;20029;-23
2023/03/11 00:43:15;;;;;;;81.47;23.52;;;;;;;;;;5030089;28;20535;-23
2023/03/11 00:45:43;;;;;;;82.30;25.40;;;;;;;;;;5013248;28;20133;-25
2023/03/11 00:48:10;;;;;;;55.58;16.98;;;;;;;;;;5026638;28;20029;-25
2023/03/11 00:50:37;;;;;;;55.00;16.20;;;;;;;;;;5028554;28;20034;-22
2023/03/11 00:53:05;;;;;;;58.88;19.15;;;;;;;;;;5030293;28;20026;-25
2023/03/11 00:55:33;;;;;;;53.65;17.42;;;;;;;;;;5030279;28;20079;-23
2023/03/11 00:58:01;;;;;;;52.85;18.50;;;;;;;;;;5030732;28;20562;-23
2023/03/11 01:00:29;;;;;;;54.85;16.00;;;;;;;;;;5031414;28;20028;-23
2023/03/11 01:02:56;;;;;;;49.15;16.20;;;;;;;;;;5031477;28;20394;-23
2023/03/11 01:05:28;;;;;;;62.30;18.25;;;;;;;;;;5031347;28;20037;-24
2023/03/11 01:07:55;;;;;;;54.67;16.83;;;;;;;;;;5031267;28;20460;-24
2023/03/11 01:10:22;;;;;;;50.88;16.45;;;;;;;;;;5031164;28;20034;-23
2023/03/11 01:12:49;;;;;;;56.47;17.33;;;;;;;;;;5031043;28;20457;-23
2023/03/11 01:15:24;;;;;;;75.45;19.27;;;;;;;;;;5030544;28;20026;-23
2023/03/11 01:17:51;;;;;;;75.38;22.20;;;;;;;;;;5030299;28;20025;-23
2023/03/11 01:20:18;;;;;;;67.68;23.58;;;;;;;;;;5030439;28;20036;-25
2023/03/11 01:22:45;;;;;;;76.70;23.83;;;;;;;;;;5030450;28;20491;-25
2023/03/11 01:25:14;;;;;;;71.28;24.58;;;;;;;;;;5030449;28;20479;-23
2023/03/11 01:27:41;;;;;;;66.22;23.42;;;;;;;;;;5030780;28;20034;-23
2023/03/11 01:30:08;;;;;;;56.05;19.75;;;;;;;;;;5031046;28;20041;-25
2023/03/11 01:32:35;;;;;;;68.75;23.83;;;;;;;;;;5031191;28;20129;-23
2023/03/11 01:35:02;;;;;;;57.58;20.63;;;;;;;;;;5030617;28;20021;-25
2023/03/11 01:37:29;;;;;;;63.00;21.55;;;;;;;;;;5028972;28;20040;-24
2023/03/11 01:39:56;;;;;;;55.28;19.55;;;;;;;;;;5026067;28;20422;-25
2023/03/11 01:42:23;;;;;;;48.70;18.83;;;;;;;;;;5030699;28;20040;-25
2023/03/11 01:44:50;;;;;;;51.08;18.77;;;;;;;;;;5029748;28;20021;-26
2023/03/11 01:47:35;;;;;;;44.22;16.17;;;;;;;;;;5030801;28;20034;-25
2023/03/11 01:50:03;;;;;;;41.80;15.13;;;;;;;;;;5027774;28;20025;-25
2023/03/11 01:52:30;;;;;;;43.72;15.10;;;;;;;;;;5030856;28;20064;-25
2023/03/11 01:54:57;;;;;;;42.65;15.23;;;;;;;;;;5029693;28;20052;-23
2023/03/11 01:57:24;;;;;;;33.35;13.48;;;;;;;;;;5029472;28;20073;-25
2023/03/11 01:59:53;;;;;;;45.05;15.02;;;;;;;;;;5030095;28;20029;-25
2023/03/11 02:02:26;;;;;;;38.85;14.10;;;;;;;;;;5029516;28;20041;-27
2023/03/11 02:04:54;;;;;;;39.90;14.82;;;;;;;;;;5030204;28;20025;-25
2023/03/11 02:07:21;;;;;;;33.47;11.95;;;;;;;;;;5013964;28;20033;-26
2023/03/11 02:09:48;;;;;;;35.92;11.73;;;;;;;;;;5033960;28;20112;-25
2023/03/11 02:12:15;;;;;;;29.65;10.52;;;;;;;;;;5033972;28;20088;-26
2023/03/11 02:14:47;;;;;;;31.02;11.82;;;;;;;;;;5033685;28;20036;-24
2023/03/11 02:17:15;;;;;;;33.63;12.35;;;;;;;;;;5034058;28;20029;-25
2023/03/11 02:20:00;;;;;;;33.63;12.55;;;;;;;;;;5034276;28;20033;-23
2023/03/11 02:22:32;;;;;;;28.25;12.48;;;;;;;;;;5033746;28;20383;-24
2023/03/11 02:25:02;;;;;;;33.67;12.82;;;;;;;;;;5033302;28;20025;-24
2023/03/11 02:27:31;;;;;;;32.28;12.35;;;;;;;;;;5030881;28;20017;-26
2023/03/11 02:29:58;;;;;;;29.20;11.52;;;;;;;;;;5033362;28;20029;-26
2023/03/11 02:32:26;;;;;;;27.70;11.85;;;;;;;;;;5033404;28;20834;-23
2023/03/11 02:34:53;;;;;;;25.33;11.30;;;;;;;;;;5032535;28;20483;-25
2023/03/11 02:37:20;;;;;;;30.52;12.77;;;;;;;;;;5030118;28;20021;-24
2023/03/11 02:39:48;;;;;;;25.48;11.10;;;;;;;;;;5032077;28;20071;-23
2023/03/11 02:42:18;;;;;;;19.45;10.20;;;;;;;;;;5032987;28;20029;-25
2023/03/11 02:44:48;;;;;;;25.50;9.60;;;;;;;;;;5033788;28;20475;-24
2023/03/11 02:47:15;;;;;;;28.15;11.02;;;;;;;;;;5033853;28;20396;-26
2023/03/11 02:49:42;;;;;;;28.80;10.00;;;;;;;;;;5033908;28;20026;-23
2023/03/11 02:52:09;;;;;;;25.85;10.38;;;;;;;;;;5033797;28;20034;-23
2023/03/11 02:54:36;;;;;;;26.23;10.02;;;;;;;;;;5033829;28;20059;-23
2023/03/11 02:57:03;;;;;;;25.83;9.80;;;;;;;;;;5033666;28;20048;-23
2023/03/11 02:59:30;;;;;;;22.10;9.77;;;;;;;;;;5033689;28;20041;-23
2023/03/11 03:01:57;;;;;;;21.52;8.93;;;;;;;;;;5033801;28;20026;-24
2023/03/11 03:04:24;;;;;;;23.50;8.95;;;;;;;;;;5033652;28;20025;-26
2023/03/11 03:06:51;;;;;;;20.42;8.07;;;;;;;;;;5033406;28;20060;-25
2023/03/11 03:09:18;;;;;;;21.13;9.02;;;;;;;;;;5033503;28;20033;-25
2023/03/11 03:11:45;;;;;;;22.83;8.50;;;;;;;;;;5033518;28;20040;-24
2023/03/11 03:14:12;;;;;;;16.60;8.23;;;;;;;;;;5032005;28;20091;-23
2023/03/11 03:16:39;;;;;;;17.30;7.82;;;;;;;;;;5033477;28;20037;-24
2023/03/11 03:19:06;;;;;;;17.70;7.75;;;;;;;;;;5033406;28;20495;-24
2023/03/11 03:21:33;;;;;;;16.50;8.50;;;;;;;;;;5030708;28;20025;-29
2023/03/11 03:24:00;;;;;;;17.63;7.15;;;;;;;;;;5013309;28;20026;-26
2023/03/11 03:26:27;;;;;;;15.70;7.05;;;;;;;;;;5013441;28;20022;-24
2023/03/11 03:28:54;;;;;;;16.15;7.32;;;;;;;;;;4995593;28;20403;-23
2023/03/11 03:31:23;;;;;;;13.85;7.05;;;;;;;;;;5013405;28;20032;-23
2023/03/11 03:33:50;;;;;;;13.40;6.22;;;;;;;;;;5013284;28;20041;-29
2023/03/11 03:36:17;;;;;;;14.65;7.35;;;;;;;;;;5013402;28;20040;-25
2023/03/11 03:38:44;;;;;;;15.13;6.95;;;;;;;;;;5013156;28;20030;-26
2023/03/11 03:41:14;;;;;;;13.00;6.30;;;;;;;;;;5013282;28;20607;-25
2023/03/11 03:43:41;;;;;;;12.00;5.60;;;;;;;;;;5012998;28;20034;-23
2023/03/11 03:46:08;;;;;;;11.90;5.40;;;;;;;;;;5013194;28;20069;-24
2023/03/11 03:48:35;;;;;;;13.73;5.68;;;;;;;;;;5013084;28;20044;-24
2023/03/11 03:51:06;;;;;;;10.77;4.97;;;;;;;;;;5013130;28;20046;-23
2023/03/11 03:53:36;;;;;;;12.75;5.72;;;;;;;;;;5013103;28;20054;-24
2023/03/11 03:56:07;;;;;;;10.20;5.22;;;;;;;;;;5012728;28;20056;-24
2023/03/11 03:58:35;;;;;;;10.25;5.25;;;;;;;;;;5012959;28;20038;-23
2023/03/11 04:01:03;;;;;;;9.27;5.22;;;;;;;;;;5012902;28;20080;-24
2023/03/11 04:03:30;;;;;;;8.98;4.97;;;;;;;;;;5012745;28;20034;-23
2023/03/11 04:06:08;;;;;;;11.52;5.10;;;;;;;;;;5012709;28;20030;-24
2023/03/11 04:08:35;;;;;;;9.07;4.50;;;;;;;;;;5012815;28;20107;-24
2023/03/11 04:11:02;;;;;;;8.70;4.15;;;;;;;;;;5012708;28;20439;-26
2023/03/11 04:13:29;;;;;;;9.10;4.45;;;;;;;;;;5012646;28;20033;-26
2023/03/11 04:15:56;;;;;;;7.47;4.05;;;;;;;;;;5012470;28;20480;-26
2023/03/11 04:18:23;;;;;;;9.18;4.35;;;;;;;;;;5012636;28;20032;-30
2023/03/11 04:20:50;;;;;;;8.77;4.28;;;;;;;;;;5012636;28;20076;-26
2023/03/11 04:23:17;;;;;;;6.45;3.88;;;;;;;;;;5012398;28;20030;-26
2023/03/11 04:25:44;;;;;;;9.85;4.05;;;;;;;;;;5011930;28;20034;-23
2023/03/11 04:28:11;;;;;;;7.03;3.85;;;;;;;;;;4994655;28;20072;-24
2023/03/11 04:30:39;;;;;;;7.70;3.55;;;;;;;;;;5012414;28;20105;-23
2023/03/11 04:33:06;;;;;;;7.22;3.78;;;;;;;;;;5012426;28;20030;-27
2023/03/11 04:35:33;;;;;;;5.45;3.40;;;;;;;;;;4994583;28;20037;-26
2023/03/11 04:38:00;;;;;;;8.02;3.72;;;;;;;;;;5012314;28;20033;-25
2023/03/11 04:40:27;;;;;;;6.93;3.35;;;;;;;;;;5012085;28;20040;-23
2023/03/11 04:42:54;;;;;;;7.20;3.30;;;;;;;;;;5012360;28;20144;-24
2023/03/11 04:45:21;;;;;;;6.13;3.25;;;;;;;;;;5012071;28;20449;-24
2023/03/11 04:47:49;;;;;;;9.07;3.45;;;;;;;;;;5012164;28;20030;-28
2023/03/11 04:50:16;;;;;;;6.05;3.17;;;;;;;;;;5012080;28;20432;-26
2023/03/11 04:52:43;;;;;;;5.50;3.30;;;;;;;;;;5012046;28;20079;-26
2023/03/11 04:55:12;;;;;;;5.25;3.13;;;;;;;;;;5012047;28;20040;-23
2023/03/11 04:57:42;;;;;;;4.75;2.80;;;;;;;;;;5011694;28;20050;-23
2023/03/11 05:00:10;;;;;;;5.68;2.70;;;;;;;;;;5011990;28;20018;-24
2023/03/11 05:02:38;;;;;;;6.03;2.90;;;;;;;;;;5011968;28;20233;-24
2023/03/11 05:05:05;;;;;;;5.30;2.88;;;;;;;;;;5011831;28;20029;-24
2023/03/11 05:07:32;;;;;;;6.72;3.22;;;;;;;;;;5011953;28;20034;-24
2023/03/11 05:09:59;;;;;;;4.72;2.75;;;;;;;;;;5011904;28;20048;-25
2023/03/11 05:12:26;;;;;;;4.88;2.97;;;;;;;;;;5011918;28;20026;-23
2023/03/11 05:14:53;;;;;;;5.70;2.70;;;;;;;;;;5011677;28;20120;-23
2023/03/11 05:17:20;;;;;;;4.20;2.42;;;;;;;;;;5011847;28;20539;-24
2023/03/11 05:19:47;;;;;;;5.40;2.53;;;;;;;;;;5011858;28;20491;-25
2023/03/11 05:22:14;;;;;;;4.90;2.72;;;;;;;;;;5011850;28;20026;-26
2023/03/11 05:24:41;;;;;;;4.57;2.13;;;;;;;;;;5011697;28;20113;-24
2023/03/11 05:27:08;;;;;;;4.70;2.25;;;;;;;;;;5011482;28;20042;-25
2023/03/11 05:29:35;;;;;;;5.78;2.80;;;;;;;;;;5011740;28;20672;-24
2023/03/11 05:32:02;;;;;;;3.90;2.22;;;;;;;;;;5011506;28;20088;-24
2023/03/11 05:34:29;;;;;;;4.00;2.22;;;;;;;;;;5011549;28;20034;-26
2023/03/11 05:36:56;;;;;;;5.30;2.47;;;;;;;;;;5011927;28;20049;-26
2023/03/11 05:39:23;;;;;;;5.32;2.28;;;;;;;;;;5015654;28;20030;-26
2023/03/11 05:41:50;;;;;;;4.80;2.30;;;;;;;;;;5015505;28;20026;-26
2023/03/11 05:44:17;;;;;;;5.50;2.50;;;;;;;;;;5015314;28;20064;-26
2023/03/11 05:46:44;;;;;;;4.63;2.08;;;;;;;;;;5015388;28;20436;-26
2023/03/11 05:49:11;;;;;;;2.80;1.85;;;;;;;;;;5015422;28;20038;-26
2023/03/11 05:51:39;;;;;;;4.68;2.08;;;;;;;;;;5015390;28;20033;-26
2023/03/11 05:54:13;;;;;;;4.35;2.20;;;;;;;;;;5015165;28;20042;-26
2023/03/11 05:56:44;;;;;;;3.45;2.10;;;;;;;;;;5014790;28;20038;-26
2023/03/11 05:59:12;;;;;;;3.70;1.73;;;;;;;;;;5015229;28;20038;-26
2023/03/11 06:01:40;;;;;;;7.07;2.00;;;;;;;;;;5020162;28;20040;-24
2023/03/11 06:04:07;;;;;;;4.13;2.22;;;;;;;;;;5034656;28;20029;-23
2023/03/11 06:06:34;;;;;;;2.70;1.70;;;;;;;;;;5034826;28;20475;-25
2023/03/11 06:09:02;;;;;;;2.83;1.85;;;;;;;;;;5034846;28;20025;-24
2023/03/11 06:11:29;;;;;;;3.20;1.77;;;;;;;;;;5034544;28;20115;-23
2023/03/11 06:13:57;;;;;;;3.38;1.77;;;;;;;;;;5034605;28;20087;-24
2023/03/11 06:16:25;;;;;;;3.42;1.83;;;;;;;;;;5034538;28;20400;-23
2023/03/11 06:18:52;;;;;;;3.83;2.17;;;;;;;;;;5034592;28;20786;-26
2023/03/11 06:21:20;;;;;;;4.65;1.92;;;;;;;;;;5034597;28;20120;-27
2023/03/11 06:23:48;;;;;;;2.35;1.65;;;;;;;;;;5034159;28;20073;-24
2023/03/11 06:26:16;;;;;;;3.58;1.90;;;;;;;;;;5034529;28;20475;-26
2023/03/11 06:28:44;;;;;;;3.58;1.90;;;;;;;;;;5034331;28;20402;-26
2023/03/11 06:31:12;;;;;;;4.93;1.80;;;;;;;;;;5034368;28;20557;-26
2023/03/11 06:33:39;;;;;;;4.22;2.20;;;;;;;;;;5034298;28;20079;-24
2023/03/11 06:36:06;;;;;;;4.45;1.92;;;;;;;;;;5034372;28;20044;-24
2023/03/11 06:38:34;;;;;;;3.65;2.05;;;;;;;;;;5034335;28;20043;-23
2023/03/11 06:41:02;;;;;;;3.40;1.73;;;;;;;;;;5034169;28;20029;-24
2023/03/11 06:43:30;;;;;;;3.42;1.83;;;;;;;;;;5034219;28;20371;-24
2023/03/11 06:45:57;;;;;;;3.10;1.83;;;;;;;;;;5034122;28;20030;-25
2023/03/11 06:48:24;;;;;;;2.70;1.63;;;;;;;;;;5033282;28;20444;-25
2023/03/11 06:50:58;;;;;;;2.53;1.63;;;;;;;;;;5034018;28;20087;-25
2023/03/11 06:53:26;;;;;;;2.40;1.63;;;;;;;;;;5033926;28;20030;-26
2023/03/11 06:56:03;;;;;;;2.08;1.50;;;;;;;;;;5033843;28;20030;-27
2023/03/11 06:58:30;;;;;;;2.58;1.58;;;;;;;;;;5033899;28;20042;-27
2023/03/11 07:01:16;;;;;;;3.78;1.48;;;;;;;;;;5033914;28;20117;-26
2023/03/11 07:03:43;;;;;;;3.05;1.50;;;;;;;;;;5033749;28;20104;-23
2023/03/11 07:06:14;;;;;;;2.75;1.55;;;;;;;;;;5033647;28;20026;-24
2023/03/11 07:08:41;;;;;;;2.58;1.50;;;;;;;;;;5033636;28;20094;-23
2023/03/11 07:11:15;;;;;;;2.75;1.60;;;;;;;;;;5033533;28;20040;-26
2023/03/11 07:13:42;;;;;;;2.85;1.50;;;;;;;;;;5033015;28;20091;-26
2023/03/11 07:16:11;;;;;;;2.38;1.50;;;;;;;;;;5033577;28;20041;-26
2023/03/11 07:18:38;;;;;;;2.50;1.50;;;;;;;;;;5033553;28;20025;-25
2023/03/11 07:21:07;;;;;;;2.55;1.70;;;;;;;;;;5033551;28;20491;-23
2023/03/11 07:23:34;;;;;;;3.60;1.63;;;;;;;;;;5033402;28;20503;-25
2023/03/11 07:26:01;;;;;;;3.15;1.60;;;;;;;;;;5033359;28;20525;-24
2023/03/11 07:28:29;;;;;;;3.25;1.50;;;;;;;;;;5033453;28;20036;-24
2023/03/11 07:30:56;;;;;;;2.92;1.50;;;;;;;;;;5033319;28;20041;-24
2023/03/11 07:33:23;;;;;;;3.03;1.60;;;;;;;;;;5033212;28;20040;-25
2023/03/11 07:35:50;;;;;;;2.65;1.60;;;;;;;;;;5033079;28;20045;-26
2023/03/11 07:38:18;;;;;;;2.17;1.27;;;;;;;;;;5015042;28;20036;-26
2023/03/11 07:40:45;;;;;;;2.63;1.50;;;;;;;;;;5032992;28;20029;-26
2023/03/11 07:43:12;;;;;;;2.25;1.35;;;;;;;;;;5033085;28;20033;-27
2023/03/11 07:45:39;;;;;;;2.47;1.48;;;;;;;;;;5032878;28;20502;-26
2023/03/11 07:48:06;;;;;;;1.83;1.40;;;;;;;;;;5032934;28;20034;-26
2023/03/11 07:50:33;;;;;;;4.38;1.55;;;;;;;;;;5033005;28;20083;-27
2023/03/11 07:53:00;;;;;;;3.10;1.50;;;;;;;;;;5015065;28;20029;-29
2023/03/11 07:55:27;;;;;;;2.10;1.45;;;;;;;;;;5032856;28;20510;-25
2023/03/11 07:57:54;;;;;;;2.47;1.30;;;;;;;;;;5032652;28;20120;-25
2023/03/11 08:00:22;;;;;;;2.95;1.63;;;;;;;;;;5032020;28;20106;-23
2023/03/11 08:02:49;;;;;;;2.60;1.38;;;;;;;;;;5014776;28;20435;-26
2023/03/11 08:05:19;;;;;;;2.22;1.30;;;;;;;;;;5032478;28;20025;-26
2023/03/11 08:07:46;;;;;;;2.40;1.45;;;;;;;;;;5032459;28;20033;-25
2023/03/11 08:10:13;;;;;;;3.40;1.40;;;;;;;;;;5032594;28;20048;-23
2023/03/11 08:12:40;;;;;;;2.80;1.38;;;;;;;;;;5032585;28;20546;-23
2023/03/11 08:15:08;;;;;;;3.03;1.20;;;;;;;;;;5032405;28;20040;-27
2023/03/11 08:17:35;;;;;;;4.22;1.48;;;;;;;;;;5032421;28;20030;-22
2023/03/11 08:20:02;;;;;;;2.65;1.30;;;;;;;;;;5032360;28;20030;-23
2023/03/11 08:22:29;;;;;;;1.33;1.08;;;;;;;;;;5032261;28;20026;-24
2023/03/11 08:24:56;;;;;;;2.15;1.50;;;;;;;;;;5002654;28;20034;-27
2023/03/11 08:27:23;;;;;;;3.03;1.50;;;;;;;;;;4992836;28;20073;-24
2023/03/11 08:29:50;;;;;;;2.03;1.20;;;;;;;;;;5001332;28;20041;-24
2023/03/11 08:32:17;;;;;;;3.35;1.42;;;;;;;;;;5014278;28;20412;-27
2023/03/11 08:34:44;;;;;;;3.35;1.50;;;;;;;;;;5006807;28;20477;-24
2023/03/11 08:37:11;;;;;;;2.78;1.20;;;;;;;;;;4992753;28;20030;-26
2023/03/11 08:39:37;;;;;;;1.60;1.20;;;;;;;;;;4992679;28;20034;-26
2023/03/11 08:42:05;;;;;;;1.70;1.48;;;;;;;;;;4992911;28;20109;-24
2023/03/11 08:44:31;;;;;;;2.60;1.20;;;;;;;;;;4992593;28;20064;-24
2023/03/11 08:46:59;;;;;;;1.80;1.10;;;;;;;;;;4992421;28;20117;-24
2023/03/11 08:49:26;;;;;;;2.35;1.30;;;;;;;;;;4992615;28;20030;-24
2023/03/11 08:51:53;;;;;;;2.38;1.27;;;;;;;;;;4992484;28;20026;-24
2023/03/11 08:54:19;;;;;;;3.90;1.40;;;;;;;;;;4992432;28;20152;-26
2023/03/11 08:56:49;;;;;;;2.10;1.45;;;;;;;;;;4992356;28;20046;-23
2023/03/11 08:59:16;;;;;;;3.53;1.20;;;;;;;;;;4982277;28;20483;-23
2023/03/11 09:01:44;;;;;;;3.13;1.38;;;;;;;;;;5011976;28;20069;-25
2023/03/11 09:04:11;;;;;;;2.38;1.30;;;;;;;;;;5005488;28;20034;-25
2023/03/11 09:06:41;;;;;;;3.75;1.63;;;;;;;;;;4992216;28;20116;-27
2023/03/11 09:09:10;;;;;;;2.72;1.30;;;;;;;;;;4992280;28;20046;-23
2023/03/11 09:11:37;;;;;;;3.20;1.30;;;;;;;;;;4991697;28;20088;-23
2023/03/11 09:14:05;;;;;;;2.38;1.48;;;;;;;;;;4992192;28;20547;-25
2023/03/11 09:16:32;;;;;;;2.60;1.17;;;;;;;;;;4992241;28;20085;-23
2023/03/11 09:19:06;;;;;;;2.25;1.40;;;;;;;;;;4992131;28;20041;-24
2023/03/11 09:21:33;;;;;;;3.13;1.50;;;;;;;;;;4992112;28;20034;-24
2023/03/11 09:24:03;;;;;;;2.33;1.40;;;;;;;;;;4992109;28;20030;-27
2023/03/11 09:26:30;;;;;;;2.50;1.20;;;;;;;;;;4991826;28;20038;-26
2023/03/11 09:28:57;;;;;;;2.92;1.60;;;;;;;;;;4992149;28;20041;-26
2023/03/11 09:31:24;;;;;;;2.30;1.23;;;;;;;;;;4992174;28;20022;-24
2023/03/11 09:33:51;;;;;;;2.55;1.30;;;;;;;;;;4992043;28;20023;-26
2023/03/11 09:36:20;;;;;;;4.97;1.58;;;;;;;;;;4992094;28;20412;-27
2023/03/11 09:38:47;;;;;;;2.47;1.30;;;;;;;;;;4992015;28;20045;-25
2023/03/11 09:41:14;;;;;;;2.53;1.40;;;;;;;;;;4992026;28;20093;-24
2023/03/11 09:43:47;;;;;;;2.50;1.30;;;;;;;;;;4991839;28;20370;-24
2023/03/11 09:46:32;;;;;;;2.08;1.13;;;;;;;;;;4991979;28;20034;-23
2023/03/11 09:49:25;;;;;;;2.10;1.08;;;;;;;;;;4991879;28;20074;-23
2023/03/11 09:52:04;;;;;;;1.77;1.30;;;;;;;;;;4990135;28;20050;-23
2023/03/11 09:54:35;;;;;;;1.75;1.05;;;;;;;;;;4991885;28;20109;-26
2023/03/11 09:57:03;;;;;;;3.33;1.35;;;;;;;;;;4991667;28;20038;-24
2023/03/11 09:59:33;;;;;;;3.47;1.50;;;;;;;;;;4991818;28;20431;-23
2023/03/11 10:02:02;;;;;;;3.53;1.50;;;;;;;;;;4991829;28;20492;-23
2023/03/11 10:04:32;;;;;;;1.98;1.30;;;;;;;;;;4991644;28;20041;-31
2023/03/11 10:07:01;;;;;;;2.58;1.42;;;;;;;;;;4991671;28;20679;-26
2023/03/11 10:09:48;;;;;;;3.72;1.20;;;;;;;;;;4991766;28;20057;-26
2023/03/11 10:12:33;;;;;;;3.63;1.40;;;;;;;;;;4991799;28;20031;-24
2023/03/11 10:15:04;;;;;;;4.20;1.52;;;;;;;;;;4991627;28;20026;-25
2023/03/11 10:17:34;;;;;;;5.80;1.42;;;;;;;;;;4991573;28;20034;-26
2023/03/11 10:20:21;;;;;;;3.47;1.60;;;;;;;;;;4991626;28;20504;-23
2023/03/11 10:23:06;;;;;;;2.88;1.60;;;;;;;;;;4991614;28;20061;-24
2023/03/11 10:25:51;;;;;;;2.58;1.40;;;;;;;;;;4995086;28;20030;-27
2023/03/11 10:28:20;;;;;;;1.83;1.33;;;;;;;;;;4995131;28;20508;-26
2023/03/11 10:30:50;;;;;;;2.42;1.25;;;;;;;;;;4995058;28;20041;-25
2023/03/11 10:33:35;;;;;;;3.50;1.40;;;;;;;;;;4994795;28;20026;-24
2023/03/11 10:36:12;;;;;;;3.78;1.38;;;;;;;;;;4995030;28;20026;-28
2023/03/11 10:38:42;;;;;;;2.20;1.20;;;;;;;;;;4994947;28;20077;-28
2023/03/11 10:41:16;;;;;;;1.98;1.30;;;;;;;;;;4994902;28;20408;-25
2023/03/11 10:44:06;;;;;;;3.03;1.50;;;;;;;;;;4994757;28;20666;-26
2023/03/11 10:46:33;;;;;;;2.25;1.42;;;;;;;;;;4989472;28;20082;-23
2023/03/11 10:49:00;;;;;;;2.88;1.45;;;;;;;;;;4994754;28;20065;-24
2023/03/11 10:51:32;;;;;;;2.67;1.38;;;;;;;;;;4994776;28;20122;-31
2023/03/11 10:53:58;;;;;;;;;;;;;;;;;;4994842;28;20034;-26
2023/03/11 10:56:45;;;;;;;3.17;1.10;;;;;;;;;;5011679;28;19928;-26
2023/03/11 10:59:24;;;;;;;4.68;1.50;;;;;;;;;;5013788;28;20022;-24
2023/03/11 11:01:56;;;;;;;3.42;1.50;;;;;;;;;;5014108;28;20510;-24
2023/03/11 11:04:27;;;;;;;2.55;1.20;;;;;;;;;;5012015;28;20384;-27
2023/03/11 11:06:54;;;;;;;2.38;1.60;;;;;;;;;;4994414;28;20484;-27
2023/03/11 11:09:22;;;;;;;2.92;1.17;;;;;;;;;;4994302;28;20046;-23
2023/03/11 11:12:11;;;;;;;1.75;1.15;;;;;;;;;;4994299;28;20041;-26
2023/03/11 11:14:46;;;;;;;3.65;1.30;;;;;;;;;;4994107;28;20037;-25
2023/03/11 11:17:20;;;;;;;3.40;1.30;;;;;;;;;;4994335;28;20037;-23
2023/03/11 11:19:48;;;;;;;3.22;1.38;;;;;;;;;;4994294;28;20544;-23
2023/03/11 11:22:17;;;;;;;3.08;1.48;;;;;;;;;;4994255;28;20094;-25
2023/03/11 11:24:45;;;;;;;2.55;1.27;;;;;;;;;;4994062;28;20030;-27
2023/03/11 11:27:12;;;;;;;2.78;1.35;;;;;;;;;;4994094;28;20528;-26
2023/03/11 11:29:40;;;;;;;2.67;1.35;;;;;;;;;;4993983;28;20037;-23
2023/03/11 11:32:17;;;;;;;3.83;1.33;;;;;;;;;;4993967;28;20389;-24
2023/03/11 11:34:54;;;;;;;3.65;1.40;;;;;;;;;;4992708;28;20049;-25
2023/03/11 11:37:22;;;;;;;2.60;1.20;;;;;;;;;;4995634;28;20553;-25
2023/03/11 11:39:55;;;;;;;5.63;1.60;;;;;;;;;;5000225;28;20039;-26
2023/03/11 11:42:23;;;;;;;1.92;1.30;;;;;;;;;;5002362;28;20404;-24
2023/03/11 11:44:53;;;;;;;5.25;1.50;;;;;;;;;;5000805;28;20026;-23
2023/03/11 11:47:49;;;;;;;7.20;1.45;;;;;;;;;;4998140;28;20132;-26
2023/03/11 11:50:19;;;;;;;8.40;1.80;;;;;;;;;;4983993;28;20479;-26
2023/03/11 11:52:52;;;;;;;9.13;1.70;;;;;;;;;;5003731;28;20022;-26
2023/03/11 11:55:28;;;;;;;4.57;1.65;;;;;;;;;;4999057;28;20026;-26
2023/03/11 11:57:55;;;;;;;4.15;1.60;;;;;;;;;;5001550;28;20042;-25
2023/03/11 12:00:24;;;;;;;6.60;1.63;;;;;;;;;;5001270;28;20480;-25
2023/03/11 12:03:00;;;;;;;3.45;1.50;;;;;;;;;;5002231;28;20045;-25
2023/03/11 12:05:33;;;;;;;7.80;1.30;;;;;;;;;;5000853;28;20087;-25
2023/03/11 12:08:07;;;;;;;2.25;1.30;;;;;;;;;;5003604;28;20034;-26
2023/03/11 12:10:41;;;;;;;3.97;1.48;;;;;;;;;;5000782;28;20374;-25
2023/03/11 12:13:27;;;;;;;7.30;1.55;;;;;;;;;;5001523;28;20396;-23
2023/03/11 12:16:03;;;;;;;9.60;1.80;;;;;;;;;;5002218;28;20034;-24
2023/03/11 12:18:41;;;;;;;5.38;1.35;;;;;;;;;;5001972;28;20037;-24
2023/03/11 12:21:31;;;;;;;2.95;1.60;;;;;;;;;;5001110;28;20037;-26
2023/03/11 12:24:03;;;;;;;4.55;1.60;;;;;;;;;;4999368;28;20085;-26
2023/03/11 12:26:30;;;;;;;;;;;;;;;;;;5001246;28;20433;-23
2023/03/11 12:29:07;;;;;;;7.47;1.83;;;;;;;;;;5001102;28;19909;-28
2023/03/11 12:31:39;;;;;;;3.20;1.73;;;;;;;;;;5000820;28;20137;-25
2023/03/11 12:34:16;;;;;;;4.18;1.50;;;;;;;;;;4997896;28;20069;-24
2023/03/11 12:36:44;;;;;;;5.28;1.70;;;;;;;;;;4992679;28;20048;-25
2023/03/11 12:39:23;;;;;;;3.03;1.70;;;;;;;;;;4992789;28;20065;-24
2023/03/11 12:42:10;;;;;;;3.35;1.63;;;;;;;;;;4992796;28;20374;-30
2023/03/11 12:44:38;;;;;;;5.25;1.40;;;;;;;;;;4992037;28;20030;-25
2023/03/11 12:47:08;;;;;;;3.58;1.45;;;;;;;;;;4992275;28;20122;-29
2023/03/11 12:49:35;;;;;;;4.80;1.80;;;;;;;;;;5029650;28;20045;-23
2023/03/11 12:52:14;;;;;;;2.70;1.67;;;;;;;;;;4997240;28;20524;-26
2023/03/11 12:54:42;;;;;;;6.65;2.10;;;;;;;;;;4992470;28;20026;-25
2023/03/11 12:57:18;;;;;;;4.95;1.80;;;;;;;;;;4994836;28;20046;-26
2023/03/11 12:59:54;;;;;;;4.35;1.85;;;;;;;;;;4992608;28;20079;-25
2023/03/11 13:02:34;;;;;;;7.65;2.42;;;;;;;;;;4995109;28;20022;-24
2023/03/11 13:05:19;;;;;;;6.68;2.30;;;;;;;;;;5006092;28;20026;-27
2023/03/11 13:07:56;;;;;;;7.30;1.80;;;;;;;;;;5002091;28;20611;-24
2023/03/11 13:10:29;;;;;;;4.38;2.00;;;;;;;;;;5011645;28;20034;-23
2023/03/11 13:12:56;;;;;;;5.85;2.00;;;;;;;;;;5011668;28;20046;-23
2023/03/11 13:15:23;;;;;;;5.80;2.10;;;;;;;;;;5003515;28;20034;-25
2023/03/11 13:17:56;;;;;;;3.85;2.03;;;;;;;;;;4996390;28;20404;-24
2023/03/11 13:20:41;;;;;;;9.23;1.77;;;;;;;;;;5001868;28;20507;-24
2023/03/11 13:23:09;;;;;;;5.50;2.08;;;;;;;;;;4991520;28;20505;-26
2023/03/11 13:25:43;;;;;;;5.80;2.30;;;;;;;;;;4991789;28;20038;-23
2023/03/11 13:28:27;;;;;;;4.70;2.10;;;;;;;;;;4991733;28;20385;-25
2023/03/11 13:31:14;;;;;;;4.15;1.90;;;;;;;;;;4996152;28;20431;-25
2023/03/11 13:33:41;;;;;;;6.95;2.10;;;;;;;;;;4991756;28;20488;-23
2023/03/11 13:36:19;;;;;;;6.95;1.80;;;;;;;;;;4997862;28;20476;-25
2023/03/11 13:38:59;;;;;;;7.95;1.88;;;;;;;;;;5002106;28;20090;-25
2023/03/11 13:41:34;;;;;;;6.65;2.33;;;;;;;;;;4991883;28;20085;-25
2023/03/11 13:44:21;;;;;;;8.75;2.38;;;;;;;;;;5003726;28;20038;-26
2023/03/11 13:46:49;;;;;;;5.38;2.20;;;;;;;;;;4984188;28;20053;-26
2023/03/11 13:49:19;;;;;;;6.93;2.22;;;;;;;;;;4999779;28;20459;-25
2023/03/11 13:51:47;;;;;;;6.20;2.40;;;;;;;;;;4992771;28;20026;-23
2023/03/11 13:54:25;;;;;;;5.85;2.30;;;;;;;;;;4996524;28;20053;-26
2023/03/11 13:56:55;;;;;;;4.50;2.08;;;;;;;;;;4995810;28;20053;-23
2023/03/11 13:59:26;;;;;;;3.58;1.98;;;;;;;;;;5009172;28;20034;-25
2023/03/11 14:01:54;;;;;;;6.45;2.10;;;;;;;;;;5001209;28;20504;-24
2023/03/11 14:04:27;;;;;;;6.28;2.30;;;;;;;;;;4997100;28;20030;-24
2023/03/11 14:06:54;;;;;;;9.02;2.50;;;;;;;;;;5004275;28;20030;-25
2023/03/11 14:09:22;;;;;;;9.23;2.60;;;;;;;;;;4995457;28;20026;-23
2023/03/11 14:11:50;;;;;;;8.32;2.42;;;;;;;;;;5004300;28;20026;-32
2023/03/11 14:14:52;;;;;;;8.38;2.05;;;;;;;;;;4998525;28;20041;-24
2023/03/11 14:17:19;;;;;;;;;;;;;;;;;;4933872;29;20035;-26
2023/03/11 14:20:23;;;;;;;6.15;2.55;;;;;;;;;;4989182;28;19917;-25
2023/03/11 14:22:52;;;;;;;14.90;2.75;;;;;;;;;;4915206;29;20084;-25
2023/03/11 14:25:22;;;;;;;9.32;2.88;;;;;;;;;;4994345;28;20046;-25
2023/03/11 14:27:51;;;;;;;14.10;2.95;;;;;;;;;;5001613;28;20038;-23
2023/03/11 14:30:20;;;;;;;9.75;3.03;;;;;;;;;;4986997;28;20480;-24
2023/03/11 14:32:56;;;;;;;11.52;2.70;;;;;;;;;;5001327;28;20026;-24
2023/03/11 14:35:23;;;;;;;8.55;3.33;;;;;;;;;;5007219;28;20721;-23
2023/03/11 14:37:51;;;;;;;14.40;3.53;;;;;;;;;;5004717;28;20084;-24
2023/03/11 14:40:27;;;;;;;12.57;3.42;;;;;;;;;;4996175;28;20030;-24
2023/03/11 14:42:56;;;;;;;11.43;3.47;;;;;;;;;;5005814;28;20036;-25
2023/03/11 14:45:25;;;;;;;12.25;3.47;;;;;;;;;;5003666;28;20049;-26
2023/03/11 14:47:59;;;;;;;15.07;3.63;;;;;;;;;;4999173;28;20106;-26
2023/03/11 14:50:32;;;;;;;12.68;3.70;;;;;;;;;;5007298;28;20121;-26
2023/03/11 14:53:17;;;;;;;15.73;3.97;;;;;;;;;;5004903;28;20441;-26
2023/03/11 14:56:03;;;;;;;14.52;3.90;;;;;;;;;;5004253;28;20033;-24